首页
METAR-TAF:

METAR-TAF

机场 :

Santa Maria di Leuca

Castrignano del Capo, 意大利

纬度: 39-49N, 经度: 018-21E, 海拔: 104米

当前天气观测

该预报发布于4小时和10分钟前的16:55 UTC
风速12节,风向南转南东
温度 18°C
湿度 88%
气压 1010 hPa
能見度: 8000
多云层高于1500英尺

METAR: LIBY 171655Z 16012KT 8000 BKN015 18/16 Q1010 RMK BKN QUK / QUL / VIS MAR 8 KM VIS MIN 8000

时间: 22:05 (21:05 UTC)


TAF: 丢失

超过4000个机场的气象观测和天气预报(METAR&TAF报告)。

可查询的气象台以黄色和红色小点在地图上表示。

将鼠标移到小点上方,可查看气象台名称。

然后点击查看天气观测和预报。

如需切换地图:点击带黑十字的绿色按钮放大地图;点击带横线的绿色按钮缩小地图;或者点击绿色箭头查看邻近地区的地图。


METAR-TAF: